Time;durP1;ratioP1;P1;durP2;ratioP2;P2;SDS_P1;SDS_P2;PMS_P1;PMS_P2;Temp;Humidity;BMP_temperature;BMP_pressure;BME280_temperature;BME280_humidity;BME280_pressure;Samples;Min_cycle;Max_cycle;Signal;HPM_P1;HPM_P2
2022/05/12 00:04:12;;;;;;;8.95;6.25;;;;;;;;;;4349441;82;28492;-80
2022/05/12 00:10:14;;;;;;;10.15;6.33;;;;;;;;;;4288788;82;28479;-79
2022/05/12 00:16:15;;;;;;;7.95;6.28;;;;;;;;;;4344573;82;28574;-78
2022/05/12 00:22:16;;;;;;;8.10;5.65;;;;;;;;;;4334345;82;28504;-78
2022/05/12 00:28:18;;;;;;;7.50;5.40;;;;;;;;;;4398192;80;28553;-78
2022/05/12 00:34:20;;;;;;;9.23;5.95;;;;;;;;;;4395072;80;28499;-78
2022/05/12 00:40:22;;;;;;;9.48;6.03;;;;;;;;;;4348229;82;28539;-77
2022/05/12 00:46:24;;;;;;;8.15;5.97;;;;;;;;;;4346413;82;28512;-78
2022/05/12 00:52:29;;;;;;;8.88;6.08;;;;;;;;;;4355785;82;28554;-78
2022/05/12 00:58:31;;;;;;;9.95;6.08;;;;;;;;;;4357606;82;28541;-77
2022/05/12 01:04:32;;;;;;;6.92;5.33;;;;;;;;;;4358616;82;28498;-78
2022/05/12 01:10:32;;;;;;;7.35;4.67;;;;;;;;;;4361540;82;28570;-78
2022/05/12 01:16:35;;;;;;;7.87;5.90;;;;;;;;;;4360999;80;28518;-78
2022/05/12 01:22:41;;;;;;;9.33;6.62;;;;;;;;;;4348191;82;28492;-79
2022/05/12 01:28:41;;;;;;;9.25;6.62;;;;;;;;;;4358379;82;28518;-78
2022/05/12 01:34:42;;;;;;;7.90;6.22;;;;;;;;;;4364612;80;28525;-78
2022/05/12 01:40:44;;;;;;;6.60;5.22;;;;;;;;;;4326287;82;28530;-78
2022/05/12 01:46:44;;;;;;;7.17;4.05;;;;;;;;;;4332361;82;28487;-77
2022/05/12 01:52:45;;;;;;;5.58;4.10;;;;;;;;;;4329394;80;28512;-78
2022/05/12 01:58:46;;;;;;;6.47;4.33;;;;;;;;;;4356187;80;28488;-78
2022/05/12 02:04:48;;;;;;;7.45;4.92;;;;;;;;;;4364813;80;28537;-78
2022/05/12 02:10:50;;;;;;;7.25;4.80;;;;;;;;;;4340005;80;28484;-78
2022/05/12 02:16:51;;;;;;;7.97;5.22;;;;;;;;;;4367097;80;28453;-78
2022/05/12 02:22:52;;;;;;;8.53;6.15;;;;;;;;;;4417048;79;28510;-78
2022/05/12 02:28:53;;;;;;;9.63;5.60;;;;;;;;;;4344531;82;28494;-78
2022/05/12 02:34:55;;;;;;;8.85;5.85;;;;;;;;;;4337921;80;28531;-77
2022/05/12 02:41:00;;;;;;;7.85;5.85;;;;;;;;;;4334411;80;28509;-77
2022/05/12 02:46:59;;;;;;;8.63;5.65;;;;;;;;;;4327047;81;28573;-76
2022/05/12 02:53:00;;;;;;;6.35;5.12;;;;;;;;;;4339493;81;28529;-77
2022/05/12 02:59:01;;;;;;;6.35;4.75;;;;;;;;;;4399014;79;28533;-79
2022/05/12 03:05:02;;;;;;;5.33;4.60;;;;;;;;;;4393986;79;28495;-78
2022/05/12 03:11:04;;;;;;;5.95;5.03;;;;;;;;;;4426089;80;28494;-79
2022/05/12 03:17:05;;;;;;;8.13;5.30;;;;;;;;;;4328948;78;28519;-77
2022/05/12 03:23:05;;;;;;;7.33;5.37;;;;;;;;;;4383399;81;28466;-76
2022/05/12 03:29:06;;;;;;;6.33;4.92;;;;;;;;;;4390884;80;28498;-78
2022/05/12 03:35:09;;;;;;;6.83;4.08;;;;;;;;;;4409165;80;28491;-79
2022/05/12 03:41:10;;;;;;;6.37;3.75;;;;;;;;;;4437319;80;28481;-78
2022/05/12 03:47:12;;;;;;;7.03;3.60;;;;;;;;;;4437116;80;28599;-80
2022/05/12 03:53:13;;;;;;;3.87;2.80;;;;;;;;;;4395652;78;28571;-81
2022/05/12 03:59:14;;;;;;;5.85;3.40;;;;;;;;;;4404318;79;28559;-81
2022/05/12 04:05:15;;;;;;;8.53;3.62;;;;;;;;;;4415440;80;28505;-79
2022/05/12 04:11:16;;;;;;;8.95;4.10;;;;;;;;;;4341454;80;28532;-79
2022/05/12 04:17:17;;;;;;;5.40;3.80;;;;;;;;;;4328240;80;28510;-79
2022/05/12 04:23:18;;;;;;;5.37;3.90;;;;;;;;;;4321494;80;28507;-79
2022/05/12 04:29:19;;;;;;;5.75;3.58;;;;;;;;;;4321978;80;28466;-77
2022/05/12 04:35:20;;;;;;;4.87;3.65;;;;;;;;;;4354903;80;28474;-78
2022/05/12 04:41:21;;;;;;;6.10;3.77;;;;;;;;;;4377919;80;28478;-78
2022/05/12 04:47:22;;;;;;;6.83;3.65;;;;;;;;;;4337635;80;28556;-80
2022/05/12 04:53:24;;;;;;;5.08;3.60;;;;;;;;;;4328814;80;28561;-79
2022/05/12 04:59:25;;;;;;;6.65;3.55;;;;;;;;;;4313651;80;28498;-79
2022/05/12 05:05:26;;;;;;;6.33;3.95;;;;;;;;;;4299209;81;28500;-77
2022/05/12 05:11:27;;;;;;;5.22;3.75;;;;;;;;;;4327238;80;28549;-77
2022/05/12 05:17:28;;;;;;;7.33;3.75;;;;;;;;;;4307323;81;28544;-77
2022/05/12 05:23:31;;;;;;;6.60;3.77;;;;;;;;;;4335070;80;28510;-79
2022/05/12 05:29:36;;;;;;;8.55;3.77;;;;;;;;;;4299845;80;28472;-76
2022/05/12 05:35:37;;;;;;;9.25;3.83;;;;;;;;;;4311412;81;28515;-77
2022/05/12 05:41:38;;;;;;;5.45;3.95;;;;;;;;;;4318052;80;28506;-82
2022/05/12 05:47:39;;;;;;;6.05;4.10;;;;;;;;;;4342495;80;28544;-77
2022/05/12 05:53:41;;;;;;;7.85;4.15;;;;;;;;;;4383386;79;28496;-78
2022/05/12 05:59:42;;;;;;;6.90;3.83;;;;;;;;;;4327299;81;28517;-75
2022/05/12 06:05:43;;;;;;;7.87;4.00;;;;;;;;;;4302290;82;28516;-77
2022/05/12 06:11:44;;;;;;;9.40;4.08;;;;;;;;;;4303183;80;28596;-78
2022/05/12 06:17:45;;;;;;;9.20;3.75;;;;;;;;;;4315344;80;28438;-76
2022/05/12 06:23:46;;;;;;;7.28;4.05;;;;;;;;;;4318047;80;28491;-79
2022/05/12 06:29:47;;;;;;;4.30;3.50;;;;;;;;;;4326677;80;28512;-75
2022/05/12 06:35:49;;;;;;;5.58;3.80;;;;;;;;;;4323418;82;28543;-75
2022/05/12 06:41:49;;;;;;;4.42;3.55;;;;;;;;;;4316174;81;28449;-79
2022/05/12 06:47:52;;;;;;;6.08;3.85;;;;;;;;;;4311373;80;28564;-76
2022/05/12 06:53:53;;;;;;;4.00;3.40;;;;;;;;;;4320212;80;28551;-77
2022/05/12 06:59:55;;;;;;;6.25;3.15;;;;;;;;;;4276450;81;28567;-77
2022/05/12 07:05:57;;;;;;;6.42;3.20;;;;;;;;;;4291298;80;28529;-77
2022/05/12 07:11:58;;;;;;;6.80;3.02;;;;;;;;;;4326503;80;28538;-77
2022/05/12 07:17:59;;;;;;;4.17;2.85;;;;;;;;;;4336700;80;28557;-77
2022/05/12 07:30:19;;;;;;;4.95;2.77;;;;;;;;;;4356448;80;28466;-77
2022/05/12 07:36:22;;;;;;;4.72;3.25;;;;;;;;;;4314323;80;28523;-77
2022/05/12 07:42:23;;;;;;;5.03;3.10;;;;;;;;;;4320602;80;28536;-77
2022/05/12 07:48:23;;;;;;;5.20;3.00;;;;;;;;;;4314908;80;28524;-77
2022/05/12 07:54:24;;;;;;;6.40;3.00;;;;;;;;;;4321022;80;28516;-77
2022/05/12 08:00:26;;;;;;;5.67;2.70;;;;;;;;;;4393333;79;28512;-77
2022/05/12 08:06:26;;;;;;;10.08;2.70;;;;;;;;;;4366987;79;28542;-77
2022/05/12 08:12:27;;;;;;;4.92;2.50;;;;;;;;;;4376206;79;28550;-78
2022/05/12 08:18:28;;;;;;;3.37;2.50;;;;;;;;;;4354839;80;28543;-78
2022/05/12 08:24:29;;;;;;;7.00;2.90;;;;;;;;;;4361715;80;28480;-78
2022/05/12 08:30:31;;;;;;;6.78;2.55;;;;;;;;;;4322745;80;28506;-78
2022/05/12 08:36:33;;;;;;;5.95;2.75;;;;;;;;;;4399736;79;28477;-78
2022/05/12 08:42:39;;;;;;;5.70;2.80;;;;;;;;;;4413418;79;28523;-76
2022/05/12 08:48:41;;;;;;;6.60;2.40;;;;;;;;;;4402262;79;28513;-76
2022/05/12 08:54:45;;;;;;;6.83;2.50;;;;;;;;;;4379581;80;35503;-76
2022/05/12 09:00:51;;;;;;;5.97;2.72;;;;;;;;;;4310886;80;28502;-76
2022/05/12 09:07:03;;;;;;;11.50;2.80;;;;;;;;;;4270563;80;28513;-76
2022/05/12 09:13:15;;;;;;;9.93;3.02;;;;;;;;;;4289102;80;28502;-76
2022/05/12 09:19:16;;;;;;;10.35;2.77;;;;;;;;;;4283661;80;28514;-78
2022/05/12 09:25:31;;;;;;;9.20;2.90;;;;;;;;;;4307627;81;28512;-76
2022/05/12 09:31:32;;;;;;;12.60;2.80;;;;;;;;;;4305829;80;28464;-76
2022/05/12 09:37:33;;;;;;;7.50;3.30;;;;;;;;;;4307376;80;28526;-76
2022/05/12 09:43:34;;;;;;;9.33;2.83;;;;;;;;;;4287283;80;28531;-76
2022/05/12 09:49:38;;;;;;;6.78;3.08;;;;;;;;;;4260545;80;28535;-76
2022/05/12 09:55:44;;;;;;;7.10;2.90;;;;;;;;;;4442267;78;28529;-77
2022/05/12 10:01:50;;;;;;;5.12;2.62;;;;;;;;;;4335461;80;28453;-77
2022/05/12 10:13:57;;;;;;;5.50;2.22;;;;;;;;;;4293090;80;28527;-77
2022/05/12 10:20:00;;;;;;;6.35;2.60;;;;;;;;;;4425426;79;28572;-77
2022/05/12 10:26:06;;;;;;;6.42;2.95;;;;;;;;;;4412470;79;28550;-76
2022/05/12 10:32:09;;;;;;;6.35;2.55;;;;;;;;;;4426215;79;28517;-77
2022/05/12 10:38:30;;;;;;;7.10;2.98;;;;;;;;;;4340881;80;28521;-77
2022/05/12 10:44:39;;;;;;;7.90;2.70;;;;;;;;;;4332200;80;28578;-76
2022/05/12 10:50:47;;;;;;;4.00;2.83;;;;;;;;;;4325626;80;28978;-76
2022/05/12 10:56:50;;;;;;;5.03;2.47;;;;;;;;;;4262408;81;28540;-77
2022/05/12 11:02:53;;;;;;;8.23;3.02;;;;;;;;;;4313530;80;28582;-77
2022/05/12 11:08:55;;;;;;;5.72;2.98;;;;;;;;;;4317069;80;28585;-76
2022/05/12 11:14:58;;;;;;;8.90;2.90;;;;;;;;;;4216284;82;28519;-77
2022/05/12 11:21:01;;;;;;;5.17;2.83;;;;;;;;;;4200806;82;28924;-76
2022/05/12 11:27:03;;;;;;;5.80;3.10;;;;;;;;;;4247798;82;28538;-78
2022/05/12 11:33:24;;;;;;;7.15;2.80;;;;;;;;;;4252501;82;28547;-77
2022/05/12 11:39:31;;;;;;;6.20;3.45;;;;;;;;;;4254850;82;28583;-77
2022/05/12 11:45:33;;;;;;;5.20;3.35;;;;;;;;;;4229498;82;28495;-77
2022/05/12 11:51:45;;;;;;;8.95;3.30;;;;;;;;;;4267642;80;28542;-77
2022/05/12 11:57:48;;;;;;;12.43;3.50;;;;;;;;;;4322676;81;28548;-77
2022/05/12 12:03:51;;;;;;;11.97;4.12;;;;;;;;;;4302226;80;28499;-77
2022/05/12 12:09:54;;;;;;;8.33;3.75;;;;;;;;;;4295241;80;28478;-77
2022/05/12 12:15:59;;;;;;;5.95;3.30;;;;;;;;;;4309085;80;28497;-77
2022/05/12 12:22:20;;;;;;;8.40;3.40;;;;;;;;;;4315865;80;28582;-77
2022/05/12 12:28:33;;;;;;;4.40;2.80;;;;;;;;;;4352131;80;28531;-77
2022/05/12 12:34:42;;;;;;;7.60;2.90;;;;;;;;;;4313739;80;28567;-77
2022/05/12 12:40:44;;;;;;;3.47;2.52;;;;;;;;;;4312653;80;28486;-77
2022/05/12 12:46:47;;;;;;;7.40;2.75;;;;;;;;;;4287152;80;28463;-77
2022/05/12 12:52:48;;;;;;;6.03;2.60;;;;;;;;;;4326460;80;28932;-77
2022/05/12 12:58:49;;;;;;;5.47;2.52;;;;;;;;;;4402438;80;28513;-77
2022/05/12 13:04:52;;;;;;;6.80;2.22;;;;;;;;;;4404478;79;28505;-77
2022/05/12 13:10:58;;;;;;;10.60;2.08;;;;;;;;;;4395092;79;28507;-77
2022/05/12 13:16:59;;;;;;;5.08;2.37;;;;;;;;;;4396669;79;28547;-77
2022/05/12 13:23:05;;;;;;;9.05;2.30;;;;;;;;;;4411538;79;28505;-76
2022/05/12 13:29:07;;;;;;;6.08;2.35;;;;;;;;;;4414786;79;28594;-77
2022/05/12 13:35:10;;;;;;;8.63;2.50;;;;;;;;;;4354870;80;28510;-77
2022/05/12 13:41:30;;;;;;;7.72;2.60;;;;;;;;;;4329666;80;28603;-77
2022/05/12 13:47:39;;;;;;;6.97;2.67;;;;;;;;;;4438903;79;28527;-77
2022/05/12 13:53:47;;;;;;;6.65;2.60;;;;;;;;;;4326427;80;28502;-78
2022/05/12 13:59:52;;;;;;;6.42;2.90;;;;;;;;;;4353803;80;28476;-77
2022/05/12 14:05:58;;;;;;;7.03;3.03;;;;;;;;;;4396416;79;28535;-77
2022/05/12 14:12:09;;;;;;;8.85;3.52;;;;;;;;;;4413664;80;28474;-78
2022/05/12 14:24:31;;;;;;;9.55;3.00;;;;;;;;;;4373642;80;28467;-77
2022/05/12 14:30:31;;;;;;;9.58;3.37;;;;;;;;;;4410278;79;28516;-77
2022/05/12 14:36:33;;;;;;;8.10;2.90;;;;;;;;;;4401067;80;28493;-77
2022/05/12 14:42:34;;;;;;;8.80;3.27;;;;;;;;;;4376711;80;28489;-76
2022/05/12 14:48:37;;;;;;;8.10;2.60;;;;;;;;;;4383198;79;29039;-77
2022/05/12 14:54:38;;;;;;;6.33;2.50;;;;;;;;;;4419715;79;28530;-77
2022/05/12 15:00:40;;;;;;;7.75;2.40;;;;;;;;;;4341583;80;28544;-77
2022/05/12 15:06:42;;;;;;;11.70;2.75;;;;;;;;;;4360734;79;28534;-77
2022/05/12 15:12:43;;;;;;;12.20;2.95;;;;;;;;;;4394388;79;28533;-77
2022/05/12 15:18:44;;;;;;;9.60;2.42;;;;;;;;;;4380073;79;28572;-76
2022/05/12 15:24:47;;;;;;;5.42;2.20;;;;;;;;;;4408279;79;28478;-77
2022/05/12 15:30:48;;;;;;;11.08;2.37;;;;;;;;;;4354567;81;28567;-76
2022/05/12 15:36:50;;;;;;;8.68;2.58;;;;;;;;;;4303213;81;28498;-76
2022/05/12 15:42:51;;;;;;;4.33;1.92;;;;;;;;;;4331559;80;28461;-75
2022/05/12 15:48:53;;;;;;;4.78;1.90;;;;;;;;;;4412173;81;28462;-75
2022/05/12 15:54:54;;;;;;;8.23;2.30;;;;;;;;;;4424593;80;28525;-75
2022/05/12 16:00:57;;;;;;;5.08;1.80;;;;;;;;;;4429835;80;28549;-74
2022/05/12 16:06:58;;;;;;;6.75;1.98;;;;;;;;;;4383001;80;28593;-74
2022/05/12 16:12:59;;;;;;;6.80;1.82;;;;;;;;;;4333047;80;28956;-75
2022/05/12 16:19:00;;;;;;;4.67;1.90;;;;;;;;;;4491880;79;28485;-75
2022/05/12 16:25:01;;;;;;;5.20;1.52;;;;;;;;;;4437126;79;28513;-74
2022/05/12 16:31:01;;;;;;;8.55;1.80;;;;;;;;;;4344752;80;28512;-76
2022/05/12 16:37:03;;;;;;;6.67;1.55;;;;;;;;;;4342135;81;28537;-75
2022/05/12 16:43:04;;;;;;;3.60;1.40;;;;;;;;;;4330060;81;28504;-75
2022/05/12 16:49:05;;;;;;;6.60;1.70;;;;;;;;;;4316138;80;28597;-76
2022/05/12 16:55:08;;;;;;;3.87;1.50;;;;;;;;;;4323860;81;28545;-75
2022/05/12 17:01:09;;;;;;;4.33;1.67;;;;;;;;;;4281761;81;28502;-75
2022/05/12 17:07:10;;;;;;;5.40;1.60;;;;;;;;;;4332084;80;28500;-75
2022/05/12 17:13:11;;;;;;;7.53;1.75;;;;;;;;;;4416299;79;28541;-74
2022/05/12 17:19:14;;;;;;;7.62;1.70;;;;;;;;;;4391626;79;28485;-75
2022/05/12 17:25:15;;;;;;;2.95;1.40;;;;;;;;;;4331716;81;28463;-75
2022/05/12 17:31:16;;;;;;;6.67;2.50;;;;;;;;;;4366814;81;28474;-76
2022/05/12 17:37:17;;;;;;;4.05;1.50;;;;;;;;;;4428255;79;28494;-74
2022/05/12 17:43:18;;;;;;;8.13;1.50;;;;;;;;;;4347030;81;28567;-75
2022/05/12 17:49:19;;;;;;;7.12;1.60;;;;;;;;;;4286652;82;28518;-75
2022/05/12 17:55:20;;;;;;;3.95;1.20;;;;;;;;;;4320138;80;28509;-75
2022/05/12 18:01:24;;;;;;;5.65;1.50;;;;;;;;;;4341607;81;28510;-75
2022/05/12 18:07:29;;;;;;;4.45;1.55;;;;;;;;;;4298740;80;28507;-75
2022/05/12 18:13:29;;;;;;;4.92;1.27;;;;;;;;;;4307711;80;28492;-74
2022/05/12 18:19:30;;;;;;;3.37;1.40;;;;;;;;;;4317470;82;28534;-76
2022/05/12 18:25:33;;;;;;;5.55;1.50;;;;;;;;;;4395885;80;28549;-75
2022/05/12 18:31:37;;;;;;;3.80;1.52;;;;;;;;;;4367858;80;28567;-73
2022/05/12 18:37:42;;;;;;;5.08;1.30;;;;;;;;;;4330432;81;28508;-74
2022/05/12 18:43:43;;;;;;;7.55;1.57;;;;;;;;;;4347455;80;28544;-75
2022/05/12 18:49:44;;;;;;;4.75;1.90;;;;;;;;;;4314486;80;28557;-74
2022/05/12 18:55:45;;;;;;;4.50;1.60;;;;;;;;;;4331669;81;28556;-76
2022/05/12 19:01:48;;;;;;;4.15;1.50;;;;;;;;;;4328584;80;28525;-75
2022/05/12 19:07:50;;;;;;;4.35;1.50;;;;;;;;;;4329670;80;28493;-73
2022/05/12 19:13:51;;;;;;;4.95;1.55;;;;;;;;;;4332530;80;28551;-74
2022/05/12 19:19:52;;;;;;;6.45;1.50;;;;;;;;;;4356516;80;28483;-73
2022/05/12 19:25:53;;;;;;;4.60;1.62;;;;;;;;;;4340750;80;28501;-75
2022/05/12 19:31:54;;;;;;;5.85;1.82;;;;;;;;;;4327826;80;28496;-77
2022/05/12 19:37:59;;;;;;;6.92;1.45;;;;;;;;;;4328875;80;28499;-77
2022/05/12 19:44:00;;;;;;;6.00;1.80;;;;;;;;;;4301268;80;28477;-77
2022/05/12 19:50:02;;;;;;;7.97;1.82;;;;;;;;;;4292121;80;28541;-81
2022/05/12 19:56:03;;;;;;;4.58;1.55;;;;;;;;;;4348386;82;28505;-79
2022/05/12 20:02:05;;;;;;;8.83;2.08;;;;;;;;;;4327573;82;28545;-77
2022/05/12 20:08:07;;;;;;;6.05;1.92;;;;;;;;;;4338028;81;28481;-79
2022/05/12 20:14:09;;;;;;;5.95;1.77;;;;;;;;;;4276694;82;28494;-77
2022/05/12 20:20:12;;;;;;;9.15;1.77;;;;;;;;;;4317743;82;28504;-78
2022/05/12 20:26:14;;;;;;;9.15;1.80;;;;;;;;;;4277613;82;28569;-78
2022/05/12 20:32:15;;;;;;;6.03;1.62;;;;;;;;;;4346517;82;28501;-77
2022/05/12 20:38:16;;;;;;;7.22;1.95;;;;;;;;;;4346255;82;28540;-78
2022/05/12 20:44:17;;;;;;;4.28;2.20;;;;;;;;;;4346373;82;28539;-78
2022/05/12 20:50:18;;;;;;;7.92;1.90;;;;;;;;;;4346084;82;28518;-80
2022/05/12 20:56:21;;;;;;;4.37;1.60;;;;;;;;;;4318634;82;28564;-80
2022/05/12 21:02:22;;;;;;;5.78;2.22;;;;;;;;;;4272578;82;28561;-78
2022/05/12 21:08:25;;;;;;;6.78;2.10;;;;;;;;;;4325960;82;28462;-77
2022/05/12 21:14:25;;;;;;;7.12;2.20;;;;;;;;;;4294659;82;28486;-76
2022/05/12 21:20:27;;;;;;;5.40;2.15;;;;;;;;;;4327037;82;28536;-79
2022/05/12 21:26:28;;;;;;;6.97;1.87;;;;;;;;;;4270348;82;28551;-77
2022/05/12 21:32:28;;;;;;;4.58;1.87;;;;;;;;;;4252872;84;28500;-77
2022/05/12 21:38:29;;;;;;;5.80;1.80;;;;;;;;;;4289426;82;28604;-78
2022/05/12 21:44:32;;;;;;;8.30;2.60;;;;;;;;;;4327000;82;28470;-78
2022/05/12 21:50:33;;;;;;;4.70;2.00;;;;;;;;;;4326497;82;28522;-78
2022/05/12 21:56:34;;;;;;;4.42;2.10;;;;;;;;;;4326704;82;28510;-79
2022/05/12 22:02:35;;;;;;;6.72;2.52;;;;;;;;;;4326628;82;28542;-79
2022/05/12 22:08:36;;;;;;;6.05;2.02;;;;;;;;;;4326725;82;28498;-79
2022/05/12 22:14:41;;;;;;;6.33;2.20;;;;;;;;;;4326789;82;28491;-78
2022/05/12 22:20:42;;;;;;;6.15;2.42;;;;;;;;;;4419726;80;28482;-77
2022/05/12 22:26:42;;;;;;;8.50;2.42;;;;;;;;;;4326827;82;28494;-77
2022/05/12 22:32:44;;;;;;;8.93;2.35;;;;;;;;;;4359411;79;28558;-77
2022/05/12 22:38:46;;;;;;;7.62;2.50;;;;;;;;;;4362072;80;28532;-78
2022/05/12 22:44:47;;;;;;;8.15;2.33;;;;;;;;;;4253567;83;28484;-77
2022/05/12 22:50:48;;;;;;;5.35;2.20;;;;;;;;;;4287720;82;28969;-77
2022/05/12 22:56:49;;;;;;;6.12;2.42;;;;;;;;;;4306068;82;28527;-77
2022/05/12 23:02:50;;;;;;;7.72;2.12;;;;;;;;;;4312433;82;28485;-78
2022/05/12 23:08:52;;;;;;;5.62;2.20;;;;;;;;;;4253929;83;28511;-77
2022/05/12 23:14:53;;;;;;;6.75;2.10;;;;;;;;;;4273399;82;28459;-76
2022/05/12 23:27:15;;;;;;;8.58;2.70;;;;;;;;;;4326929;82;28498;-78
2022/05/12 23:33:15;;;;;;;7.25;2.58;;;;;;;;;;4327005;82;28501;-78
2022/05/12 23:39:16;;;;;;;5.83;2.90;;;;;;;;;;4327108;82;28491;-77
2022/05/12 23:45:19;;;;;;;7.50;3.20;;;;;;;;;;4296470;82;28477;-78
2022/05/12 23:51:20;;;;;;;5.75;3.17;;;;;;;;;;4244345;84;28595;-79
2022/05/12 23:57:21;;;;;;;8.55;2.67;;;;;;;;;;4336702;80;28514;-79
